Data Viewer
| City | State | Eastern Time | Source | 1 Hour Temp Max | 1 Hour Temp Min | 1 Hour Dew Point Max | 1 Hour Dew Point Min | 1 Hour RH Max | 1 Hour RH Min | 1 Hour BP Max | 1 Hour BP Min | 1 Hour Precip | 1 Hour Wind Max | 1 Hour Wind Max Dir |
|---|---|---|---|---|---|---|---|---|---|---|---|---|---|---|
| Little Egg Harbor Twp. | NJ | 2026-05-09 17:00 | Mesonet | 64 | 62 | 57 | 54 | 80 | 75 | 29.86 | 29.83 | 0.00 | 27 | SW |
| Little Egg Harbor Twp. | NJ | 2026-05-10 06:00 | Mesonet | 55 | 53 | 52 | 50 | 91 | 90 | 29.89 | 29.85 | 0.00 | 11 | SSE |
| Little Egg Harbor Twp. | NJ | 2026-05-10 15:00 | Mesonet | 72 | 68 | 57 | 56 | 68 | 57 | 29.96 | 29.93 | 0.00 | 18 | WNW |
| Little Egg Harbor Twp. | NJ | 2026-05-10 14:00 | Mesonet | 69 | 65 | 58 | 55 | 74 | 65 | 29.96 | 29.94 | 0.00 | 17 | WNW |
| Little Egg Harbor Twp. | NJ | 2026-05-10 13:00 | Mesonet | 67 | 65 | 57 | 55 | 74 | 67 | 29.97 | 29.94 | 0.00 | 16 | NW |
| Little Egg Harbor Twp. | NJ | 2026-05-10 12:00 | Mesonet | 67 | 64 | 57 | 53 | 76 | 61 | 29.97 | 29.94 | 0.00 | 14 | W |
| Little Egg Harbor Twp. | NJ | 2026-05-10 11:00 | Mesonet | 67 | 61 | 57 | 53 | 82 | 62 | 29.97 | 29.95 | 0.00 | 10 | S |
| Little Egg Harbor Twp. | NJ | 2026-05-10 10:00 | Mesonet | 64 | 59 | 57 | 54 | 85 | 76 | 29.97 | 29.94 | 0.00 | 10 | SSE |
| Little Egg Harbor Twp. | NJ | 2026-05-10 09:00 | Mesonet | 64 | 59 | 56 | 54 | 83 | 74 | 29.96 | 29.91 | 0.00 | 10 | SE |
| Little Egg Harbor Twp. | NJ | 2026-05-10 08:00 | Mesonet | 61 | 57 | 56 | 54 | 90 | 81 | 29.92 | 29.90 | 0.00 | 11 | SE |
| Little Egg Harbor Twp. | NJ | 2026-05-10 07:00 | Mesonet | 57 | 55 | 54 | 52 | 91 | 90 | 29.91 | 29.88 | 0.00 | 11 | S |
| Little Egg Harbor Twp. | NJ | 2026-05-10 05:00 | Mesonet | 55 | 53 | 52 | 51 | 92 | 91 | 29.88 | 29.85 | 0.00 | 9 | SSE |
| Little Egg Harbor Twp. | NJ | 2026-05-09 18:00 | Mesonet | 66 | 63 | 57 | 54 | 75 | 70 | 29.84 | 29.81 | 0.00 | 28 | SSW |
| Little Egg Harbor Twp. | NJ | 2026-05-10 04:00 | Mesonet | 54 | 53 | 52 | 50 | 92 | 91 | 29.87 | 29.85 | 0.00 | 6 | E |
| Little Egg Harbor Twp. | NJ | 2026-05-10 03:00 | Mesonet | 54 | 54 | 52 | 51 | 91 | 91 | 29.88 | 29.85 | 0.00 | 8 | ENE |
| Little Egg Harbor Twp. | NJ | 2026-05-10 02:00 | Mesonet | 54 | 54 | 52 | 51 | 91 | 91 | 29.89 | 29.86 | 0.00 | 9 | ENE |
| Little Egg Harbor Twp. | NJ | 2026-05-10 01:00 | Mesonet | 54 | 53 | 52 | 51 | 91 | 90 | 29.89 | 29.86 | 0.00 | 7 | NE |
| Little Egg Harbor Twp. | NJ | 2026-05-10 00:00 | Mesonet | 54 | 53 | 51 | 50 | 90 | 89 | 29.89 | 29.85 | 0.00 | 6 | NE |
| Little Egg Harbor Twp. | NJ | 2026-05-09 23:00 | Mesonet | 56 | 54 | 53 | 51 | 89 | 88 | 29.88 | 29.86 | 0.00 | 9 | W |
| Little Egg Harbor Twp. | NJ | 2026-05-09 22:00 | Mesonet | 57 | 56 | 53 | 52 | 88 | 87 | 29.88 | 29.85 | 0.00 | 15 | W |
| Little Egg Harbor Twp. | NJ | 2026-05-09 21:00 | Mesonet | 60 | 57 | 55 | 53 | 87 | 84 | 29.87 | 29.84 | 0.00 | 17 | SW |
| Little Egg Harbor Twp. | NJ | 2026-05-09 20:00 | Mesonet | 62 | 60 | 57 | 55 | 84 | 83 | 29.86 | 29.83 | 0.01 | 16 | SW |
| Little Egg Harbor Twp. | NJ | 2026-05-09 19:00 | Mesonet | 66 | 62 | 57 | 55 | 84 | 70 | 29.86 | 29.83 | 0.02 | 24 | S |
| Little Egg Harbor Twp. | NJ | 2026-05-10 16:00 | Mesonet | 73 | 69 | 57 | 55 | 63 | 56 | 29.96 | 29.93 | 0.00 | 18 | SE |
data collection created in 0.007951021194458 (queried in 0.001908) rendered in: 5.3167343139648E-5

